createdAt,value
2024-03-05T00:06:09.839Z,30.65
2024-03-05T00:13:28.567Z,31.92
2024-03-05T00:20:48.634Z,32.47
2024-03-05T00:28:07.253Z,31.63
2024-03-05T00:35:25.753Z,31.67
2024-03-05T00:42:45.680Z,30.90
2024-03-05T00:50:06.120Z,30.90
2024-03-05T00:57:25.064Z,30.55
2024-03-05T01:04:44.994Z,32.25
2024-03-05T01:12:03.715Z,31.80
2024-03-05T01:19:22.348Z,32.22
2024-03-05T01:26:44.624Z,34.08
2024-03-05T01:34:04.540Z,23.60
2024-03-05T01:41:23.178Z,32.55
2024-03-05T01:48:44.664Z,31.00
2024-03-05T01:56:03.130Z,30.35
2024-03-05T02:03:22.342Z,29.83
2024-03-05T02:10:42.951Z,31.25
2024-03-05T02:18:02.279Z,31.13
2024-03-05T02:25:21.966Z,29.77
2024-03-05T02:32:43.090Z,30.83
2024-03-05T02:40:02.291Z,32.20
2024-03-05T02:47:22.328Z,34.38
2024-03-05T02:54:42.725Z,31.70
2024-03-05T03:02:02.201Z,33.38
2024-03-05T03:09:22.382Z,33.55
2024-03-05T03:16:45.346Z,32.30
2024-03-05T03:24:04.796Z,29.90
2024-03-05T03:31:27.005Z,28.05
2024-03-05T03:38:45.265Z,27.75
2024-03-05T03:46:06.229Z,25.17
2024-03-05T03:53:26.028Z,25.60
2024-03-05T04:00:46.003Z,24.48
2024-03-05T04:08:05.204Z,25.85
2024-03-05T04:15:25.921Z,23.70
2024-03-05T04:22:44.574Z,27.02
2024-03-05T04:30:05.084Z,26.25
2024-03-05T04:37:25.190Z,23.70
2024-03-05T04:44:46.878Z,26.13
2024-03-05T04:52:05.964Z,25.10
2024-03-05T04:59:25.733Z,24.70
2024-03-05T05:06:45.251Z,25.17
2024-03-05T05:14:04.384Z,22.58
2024-03-05T05:21:25.406Z,21.52
2024-03-05T05:28:43.791Z,21.08
2024-03-05T05:36:01.984Z,23.52
2024-03-05T05:43:21.612Z,22.13
2024-03-05T05:50:39.940Z,23.63
2024-03-05T05:57:58.918Z,23.50
2024-03-05T06:05:19.124Z,21.80
2024-03-05T06:12:37.619Z,22.73
2024-03-05T06:19:59.712Z,22.58
2024-03-05T06:27:20.175Z,16.13
2024-03-05T06:35:13.255Z,21.47
2024-03-05T06:52:18.719Z,20.05
2024-03-05T06:59:36.986Z,18.42
2024-03-05T07:06:56.247Z,18.42
2024-03-05T07:14:17.320Z,17.52
2024-03-05T07:21:35.715Z,18.05
2024-03-05T07:28:54.348Z,17.10
2024-03-05T07:36:13.964Z,18.00
2024-03-05T07:43:32.131Z,18.13
2024-03-05T07:50:51.447Z,18.38
2024-03-05T07:58:11.252Z,18.95
2024-03-05T08:05:30.668Z,17.65
2024-03-05T08:12:51.379Z,18.58
2024-03-05T08:20:14.269Z,18.33
2024-03-05T08:27:32.492Z,16.05
2024-03-05T08:34:51.873Z,15.27
2024-03-05T08:42:12.974Z,12.98
2024-03-05T08:49:31.524Z,13.00
2024-03-05T08:56:50.046Z,13.45
2024-03-05T09:04:11.171Z,13.45
2024-03-05T09:11:30.088Z,12.93
2024-03-05T09:18:48.342Z,12.07
2024-03-05T09:26:09.926Z,10.43
2024-03-05T09:33:28.817Z,11.02
2024-03-05T09:40:47.448Z,11.27
2024-03-05T09:48:10.149Z,10.52
2024-03-05T09:55:29.064Z,10.77
2024-03-05T10:02:49.106Z,11.25
2024-03-05T10:10:11.514Z,10.50
2024-03-05T10:17:30.263Z,10.65
2024-03-05T10:24:48.920Z,11.60
2024-03-05T10:32:12.887Z,11.45
2024-03-05T10:39:31.419Z,14.15
2024-03-05T10:46:51.122Z,13.48
2024-03-05T10:54:10.867Z,12.80
2024-03-05T11:01:31.735Z,14.30
2024-03-05T11:08:50.800Z,12.52
2024-03-05T11:25:35.576Z,13.45
2024-03-05T11:32:53.990Z,14.02
2024-03-05T11:40:13.749Z,12.52
2024-03-05T11:47:33.587Z,14.60
2024-03-05T11:55:02.586Z,13.55
2024-03-05T12:02:21.690Z,13.35
2024-03-05T12:09:48.005Z,15.65
2024-03-05T12:17:08.874Z,16.15
2024-03-05T12:24:28.286Z,17.83
2024-03-05T12:31:49.047Z,16.05
2024-03-05T12:39:11.432Z,14.77
2024-03-05T12:55:48.654Z,15.82
2024-03-05T13:03:07.626Z,16.70
2024-03-05T13:10:26.276Z,15.52
2024-03-05T13:17:47.039Z,16.45
2024-03-05T13:25:07.583Z,14.70
2024-03-05T13:32:26.906Z,16.08
2024-03-05T13:39:48.486Z,14.50
2024-03-05T13:47:07.377Z,14.18
2024-03-05T13:54:26.304Z,14.38
2024-03-05T14:01:46.125Z,14.68
2024-03-05T14:09:05.980Z,13.77
2024-03-05T14:24:45.013Z,17.55
2024-03-05T14:32:06.360Z,15.15
2024-03-05T14:39:25.154Z,15.70
2024-03-05T14:56:08.785Z,13.40
2024-03-05T15:03:27.698Z,15.00
2024-03-05T15:10:46.497Z,15.05
2024-03-05T15:18:07.159Z,14.25
2024-03-05T15:25:25.943Z,13.35
2024-03-05T15:32:48.816Z,15.20
2024-03-05T15:40:16.579Z,12.97
2024-03-05T15:47:39.050Z,14.60
2024-03-05T15:54:57.413Z,16.48
2024-03-05T16:11:13.409Z,17.75
2024-03-05T16:18:33.367Z,16.80
2024-03-05T16:25:52.874Z,16.63
2024-03-05T16:33:12.119Z,16.52
2024-03-05T16:40:36.876Z,18.70
2024-03-05T16:47:57.398Z,16.70
2024-03-05T16:55:16.627Z,29.05
2024-03-05T17:02:37.464Z,22.30
2024-03-05T17:09:58.922Z,22.05
2024-03-05T17:17:17.245Z,20.13
2024-03-05T17:24:38.685Z,18.33
2024-03-05T17:31:59.706Z,21.00
2024-03-05T17:39:18.567Z,22.45
2024-03-05T17:46:39.658Z,21.48
2024-03-05T17:53:58.380Z,16.35
2024-03-05T18:01:16.684Z,18.42
2024-03-05T18:08:36.643Z,19.02
2024-03-05T18:15:57.442Z,19.42
2024-03-05T18:23:15.948Z,19.02
2024-03-05T18:30:36.993Z,19.67
2024-03-05T18:37:55.945Z,24.10
2024-03-05T18:45:16.968Z,21.10
2024-03-05T18:53:07.340Z,20.92
2024-03-05T19:00:27.963Z,24.02
2024-03-05T19:07:46.979Z,22.95
2024-03-05T19:15:07.725Z,25.63
2024-03-05T19:22:26.129Z,27.63
2024-03-05T19:29:44.888Z,26.08
2024-03-05T19:37:05.675Z,25.45
2024-03-05T19:44:24.240Z,25.65
2024-03-05T20:00:36.845Z,29.90
2024-03-05T20:07:55.718Z,27.80
2024-03-05T20:15:15.222Z,33.40
2024-03-05T20:22:37.676Z,38.33
2024-03-05T20:29:57.180Z,39.83
2024-03-05T20:37:15.636Z,53.35
2024-03-05T20:44:35.442Z,39.25
2024-03-05T20:53:03.482Z,36.78
2024-03-05T21:00:25.851Z,34.97
2024-03-05T21:07:45.623Z,38.95
2024-03-05T21:15:05.158Z,41.30
2024-03-05T21:22:24.971Z,42.25
2024-03-05T21:29:45.823Z,44.42
2024-03-05T21:37:04.830Z,44.92
2024-03-05T21:44:34.531Z,44.50
2024-03-05T21:53:04.748Z,39.55
2024-03-05T22:00:25.151Z,35.67
2024-03-05T22:07:43.484Z,34.42
2024-03-05T22:15:03.168Z,34.20
2024-03-05T22:22:25.114Z,32.78
2024-03-05T22:29:43.460Z,30.98
2024-03-05T22:37:02.519Z,29.35
2024-03-05T22:44:22.075Z,29.65
2024-03-05T22:53:01.313Z,29.80
2024-03-05T23:00:25.101Z,29.58
2024-03-05T23:07:43.448Z,28.88
2024-03-05T23:15:01.683Z,29.65
2024-03-05T23:22:23.240Z,30.25
2024-03-05T23:29:41.601Z,29.50
2024-03-05T23:36:59.879Z,30.92
2024-03-05T23:44:19.880Z,31.50
